Weather observations for the past three days for
Cheboygan, Cheboygan County Airport
Imperial (Metric)
Date Time (edt) Wind (mph) Vis. (mi.) Weather Sky Cond. Temperature (ºF) Relative Humidity Wind Chill (°F) Heat Index (°F) Pressure Precipitation (in)
Air Dwpt 6 hour altimeter (in) sea level (mb) 1 hr 3 hr 6 hr
Max. Min.
01 11:55 Vrbl 6 3.00 Fog/Mist OVC001 69.8 68 94% 29.95 0.0
01 11:36 S 6 1.50 Fog/Mist OVC001 69.8 68 94% 29.94 0.0
01 11:15 SE 8 1.75 Fog/Mist OVC001 69.8 68 94% 29.94 0.0
01 10:55 E 3 2.00 Fog/Mist OVC001 68 68 100% 29.95 0.0
01 10:35 Vrbl 1 0.50 Fog OVC001 68 66.2 94% 29.95 0.0
01 10:15 Calm 1.25 Fog/Mist OVC001 68 66.2 94% 29.95 0.0
01 09:55 SW 5 2.50 Fog/Mist OVC001 68 66.2 94% 29.94 0.0
01 09:35 S 3 0.75 Fog/Mist OVC001 66.2 66.2 100% 29.94 0.0
01 09:15 Vrbl 3 0.15 Fog VV000 66.2 64.4 94% 29.94 0.0
01 08:56 Vrbl 2 0.15 Fog VV000 66.2 64.4 94% 29.94 0.0
01 08:35 SE 3 0.15 Fog VV000 64.4 64.4 100% 29.93 0.0
01 08:15 E 5 0.15 Fog VV000 64.4 64.4 100% 29.93 0.0
01 07:55 E 5 0.15 Fog VV000 64.4 64.4 65.1 64.2 100% 29.93 0.0
01 07:35 NE 3 0.15 Fog VV000 64.4 64.4 100% 29.93 0.0
01 07:15 E 3 0.15 Fog VV000 64.4 64.4 100% 29.92 0.0
01 06:55 NE 2 0.15 Fog VV000 64.4 64.4 100% 29.92 0.0
01 06:36 Vrbl 1 0.15 Fog VV000 64.4 64.4 100% 29.92 0.0
01 06:15 W 1 0.15 Fog VV000 64.4 64.4 100% 29.92 0.0
01 05:35 Calm 0.15 Fog VV000 64.4 64.4 100% 29.91 0.0
01 05:15 N 2 0.25 Fog VV002 64.4 64.4 100% 29.91 0.0
01 04:55 NE 1 0.50 Fog VV002 64.4 64.4 100% 29.9 0.0
01 04:36 N 1 0.15 Fog VV000 64.4 64.4 100% 29.9 0.0
01 04:15 N 2 0.50 Fog BKN002 64.4 62.6 94% 29.9 0.0
01 03:55 W 1 0.50 Fog SCT002 64.4 64.4 100% 29.9 0.0
01 03:35 W 3 0.50 Fog BKN002 64.4 64.4 100% 29.89 0.0
01 03:15 W 2 0.15 Fog VV000 64.4 64.4 100% 29.89 0.0
01 02:55 W 2 0.15 Fog VV000 64.4 64.4 100% 29.89 0.0
01 02:35 NW 2 0.15 Fog VV000 64.4 64.4 100% 29.88 0.0
01 02:16 W 2 0.15 Fog VV000 64.4 62.6 94% 29.88 0.0
01 01:55 W 2 0.15 Fog BKN001 64.4 62.6 65.1 63.7 94% 29.88 0.0
01 01:35 W 2 0.75 Fog/Mist BKN001 64.4 62.6 94% 29.88 0.0
01 01:15 W 2 0.25 Fog VV000 64.4 62.6 94% 29.88 0.0
01 00:55 W 2 0.15 Fog VV000 64.4 62.6 94% 29.88 0.0
01 00:35 W 2 0.15 Fog VV002 64.4 62.6 94% 29.89 0.0
01 00:15 NW 1 0.50 Fog BKN001 64.4 62.6 94% 29.89 0.0
31 23:55 NW 2 1.50 Fog/Mist OVC001 64.4 62.6 94% 29.89 0.0
31 23:36 N 3 3.00 Fog/Mist OVC003 64.4 62.6 94% 29.89 0.0
31 23:15 N 2 5.00 Fog/Mist OVC003 64.4 62.6 94% 29.88 0.0
31 22:55 NW 2 5.00 Fog/Mist OVC001 64.4 62.6 94% 29.88 0.0
31 22:35 Vrbl 1 5.00 Fog/Mist OVC001 64.4 62.6 94% 29.88 0.0
31 22:15 NE 3 3.00 Fog/Mist OVC001 64.4 62.6 94% 29.88 0.0
31 21:55 N 3 3.00 Fog/Mist OVC001 64.4 62.6 94% 29.88 0.0
31 21:35 N 2 5.00 Fog/Mist OVC001 64.4 62.6 94% 29.89 0.0
31 21:16 N 5 5.00 Fog/Mist OVC001 64.4 62.6 94% 29.88 0.0
31 20:55 W 3 5.00 Fog/Mist OVC001 64.4 62.6 94% 29.89 0.0
31 20:35 NE 6 4.00 Fog/Mist OVC001 64.4 62.6 94% 29.87 0.0
31 20:15 NE 6 4.00 Fog/Mist OVC001 64.4 62.6 94% 29.87 0.0
31 19:35 NE 9 4.00 Fog/Mist OVC001 64.4 62.6 94% 29.86 0.0
31 19:15 E 9 5.00 Fog/Mist OVC003 66.2 62.6 88% 29.87 0.0
31 18:35 NE 9 6.00 Fog/Mist SCT003 BKN045 BKN070 68 64.4 88% 29.86 0.0
31 18:15 NE 8 6.00 Fog/Mist BKN045 OVC070 68 64.4 88% 29.87 0.0
31 17:55 NE 8 10.00 Mostly Cloudy BKN047 BKN050 69.8 66.2 88% 29.87 0.0
31 17:35 NE 6 10.00 Partly Cloudy SCT047 71.6 66.2 83% 29.86 0.0
31 17:15 NE 9 10.00 Overcast OVC047 69.8 66.2 88% 29.86 0.0
31 16:55 E 7 10.00 Overcast OVC047 69.8 66.2 88% 29.86 0.0
31 16:36 E 12 8.00 Overcast FEW023 SCT028 OVC047 69.8 66.2 88% 29.87 0.0
31 16:15 E 12 9.00 Overcast SCT022 OVC032 71.6 66.2 83% 29.88 0.0
31 15:55 E 10 8.00 Overcast SCT025 BKN033 OVC042 71.6 66.2 83% 29.88 0.0
31 15:35 E 12 9.00 Overcast SCT025 OVC033 71.6 66.2 83% 29.89 0.0
31 15:15 NE 14 10.00 Overcast SCT025 BKN036 OVC080 71.6 66.2 83% 29.89 0.0
31 14:55 NE 13 10.00 Partly Cloudy FEW050 SCT080 75.2 68 78% 76 29.89 0.0
31 14:35 E 13 8.00 Fair CLR 75.2 68 78% 76 29.9 0.0
31 14:16 E 13 10.00 A Few Clouds FEW085 75.2 68 78% 76 29.89 0.0
31 13:55 NE 14 10.00 Partly Cloudy SCT085 77 69.8 80.6 66.7 79% 79 29.9 0.0
31 13:35 NE 10 10.00 A Few Clouds FEW016 78.8 69.8 74% 81 29.9 0.0
31 13:15 Vrbl 3 10.00 A Few Clouds FEW014 78.8 69.8 74% 81 29.91 0.0
31 12:55 Vrbl 5 8.00 Mostly Cloudy BKN012 77 69.8 79% 79 29.92 0.0
31 12:35 SE 6 6.00 Mostly Cloudy BKN007 BKN012 77 71.6 83% 78 29.92 0.0
31 12:15 S 7 10.00 Mostly Cloudy BKN005 75.2 69.8 83% 75 29.93 0.0
31 11:35 S 5 8.00 Overcast OVC003 69.8 68 94% 29.94 0.0
31 11:15 SE 5 8.00 Overcast OVC003 69.8 68 94% 29.95 0.0
31 10:55 SE 6 5.00 Fog/Mist OVC003 69.8 68 94% 29.94 0.0 0.02
31 10:35 SE 5 4.00 Light Rain Fog/Mist OVC003 68 66.2 94% 29.95 0.0
31 10:15 SE 7 3.00 Light Rain Fog/Mist OVC003 68 66.2 94% 29.95 0.0
31 09:55 S 5 2.00 Light Rain Fog/Mist OVC003 68 66.2 94% 29.96 0.0 0.03
31 09:36 SE 6 2.00 Light Rain Fog/Mist OVC003 68 66.2 94% 29.95 0.0
31 09:15 S 2 3.00 Fog/Mist OVC003 68 66.2 94% 29.97 0.0
31 08:55 SE 5 4.00 Fog/Mist OVC003 68 66.2 94% 29.95 0.0
31 08:35 Vrbl 1 4.00 Fog/Mist OVC003 68 66.2 94% 29.96 0.0
31 08:15 SE 5 4.00 Fog/Mist OVC003 68 66.2 94% 29.94 0.0
31 07:55 SE 7 3.00 Fog/Mist OVC003 66.2 66.2 66.7 65.3 100% 29.93 0.0
31 07:35 SE 7 3.00 Fog/Mist OVC001 66.2 66.2 100% 29.92 0.0
31 07:16 SE 8 1.25 Fog/Mist BKN001 66.2 64.4 94% 29.91 0.0
31 06:55 E 5 0.50 Fog SCT001 66.2 64.4 94% 29.94 0.0
31 06:35 E 6 0.50 Fog VV005 66.2 64.4 94% 29.94 0.0
31 06:15 SE 3 0.50 Fog VV005 66.2 64.4 94% 29.96 0.0
31 05:55 E 3 0.50 Fog SCT001 66.2 64.4 94% 29.98 0.0
31 05:35 E 7 1.00 Fog/Mist OVC001 66.2 64.4 94% 29.96 0.0
31 05:15 E 3 2.00 Fog/Mist OVC003 66.2 64.4 94% 29.98 0.0
31 04:56 NE 3 2.00 Fog/Mist OVC003 66.2 64.4 94% 29.98 0.0
31 04:35 NE 3 2.00 Fog/Mist OVC003 66.2 64.4 94% 29.98 0.0
31 04:15 NE 2 3.00 Fog/Mist OVC003 66.2 64.4 94% 29.98 0.0
31 03:55 E 3 3.00 Fog/Mist BKN001 66.2 64.4 94% 29.98 0.0
31 03:35 E 5 1.25 Fog/Mist BKN001 66.2 64.4 94% 29.97 0.0
31 03:15 E 7 1.00 Fog/Mist BKN001 66.2 64.4 94% 29.96 0.0
31 02:55 E 6 3.00 Fog/Mist OVC001 66.2 64.4 94% 29.97 0.0
31 02:36 NE 3 2.50 Fog/Mist OVC001 66.2 64.4 94% 29.98 0.0
31 02:15 E 5 3.00 Fog/Mist OVC001 66.2 64.4 94% 29.98 0.0
31 01:55 E 5 4.00 Fog/Mist OVC003 66.2 64.4 66 64.8 94% 29.99 0.0
31 01:35 NE 5 4.00 Fog/Mist OVC003 66.2 64.4 94% 29.99 0.0
31 01:15 NE 6 5.00 Fog/Mist OVC003 66.2 64.4 94% 29.99 0.0
31 00:55 E 7 5.00 Fog/Mist OVC003 66.2 64.4 94% 29.98 0.0
31 00:35 E 6 7.00 Fog/Mist OVC003 66.2 64.4 94% 29.99 0.0
31 00:16 E 6 7.00 Fog/Mist OVC005 66.2 64.4 94% 29.99 0.0
30 23:55 E 7 7.00 Fog/Mist BKN005 OVC009 66.2 64.4 94% 29.99 0.0
30 23:35 NE 6 7.00 Fog/Mist SCT005 OVC009 66.2 64.4 94% 29.99 0.0
30 23:15 E 6 6.00 Fog/Mist SCT003 OVC011 66.2 64.4 94% 30 0.0
30 22:55 E 8 5.00 Light Rain Fog/Mist BKN003 OVC009 66.2 64.4 94% 30 0.0
30 22:35 E 6 5.00 Fog/Mist OVC003 64.4 64.4 100% 30 0.0
30 22:15 E 7 5.00 Fog/Mist OVC001 64.4 62.6 94% 29.99 0.0
30 21:56 E 9 4.00 Light Rain Fog/Mist OVC001 64.4 62.6 94% 29.99 0.0
30 21:35 E 8 4.00 Light Rain Fog/Mist OVC003 64.4 62.6 94% 30 0.0
30 21:15 NE 5 6.00 Light Rain Fog/Mist SCT005 BKN017 OVC050 64.4 62.6 94% 30 0.0
30 20:55 E 5 5.00 Light Rain Fog/Mist SCT002 BKN017 OVC050 64.4 62.6 94% 29.98 0.0
30 20:35 E 5 6.00 Fog/Mist OVC004 64.4 62.6 94% 29.98 0.0
30 20:15 E 8 6.00 Fog/Mist BKN004 OVC017 66.2 62.6 88% 29.98 0.0
30 19:55 E 6 8.00 Overcast FEW004 OVC017 66.2 64.4 69.8 66 94% 29.97 0.0
30 19:36 NE 8 10.00 Overcast FEW004 OVC017 66.2 64.4 94% 29.98 0.0
30 19:15 E 7 8.00 Overcast FEW002 BKN017 OVC042 66.2 64.4 94% 29.97 0.0
30 18:55 E 7 5.00 Fog/Mist SCT002 BKN017 OVC039 66.2 64.4 94% 29.98 0.0
30 18:35 E 7 5.00 Fog/Mist BKN002 OVC017 66.2 64.4 94% 29.99 0.0
30 18:15 E 9 5.00 Fog/Mist BKN004 BKN017 OVC038 66.2 64.4 94% 29.99 0.0
30 17:55 NE 7 10.00 Overcast OVC038 68 64.4 88% 29.99 0.0
30 17:35 NE 8 10.00 Overcast FEW027 OVC036 68 64.4 88% 29.99 0.0
30 17:16 NE 7 10.00 Overcast FEW018 SCT027 OVC036 69.8 64.4 83% 29.99 0.0
30 16:55 E 7 10.00 Overcast BKN024 OVC034 69.8 64.4 83% 29.98 0.0
30 16:35 E 6 10.00 Overcast OVC020 69.8 66.2 88% 29.98 0.0
30 16:15 NE 6 10.00 Overcast OVC018 69.8 66.2 88% 29.98 0.0
30 15:55 E 6 10.00 Overcast OVC018 69.8 64.4 83% 29.98 0.0
30 15:15 E 5 10.00 Overcast OVC012 69.8 64.4 83% 29.98 0.0
30 14:56 E 8 10.00 Overcast OVC012 68 64.4 88% 29.98 0.0
30 14:35 NE 8 10.00 Overcast OVC012 68 64.4 88% 29.98 0.0
30 14:15 NE 7 10.00 Overcast OVC010 68 64.4 88% 29.99 0.0
30 13:55 NE 10 10.00 Overcast OVC012 68 64.4 70.7 63.9 88% 29.98 0.0
30 13:35 NE 3 10.00 Overcast OVC012 69.8 64.4 83% 29.98 0.0
30 13:15 Vrbl 3 10.00 Overcast BKN009 OVC013 69.8 64.4 83% 29.98 0.0
30 12:55 SE 6 10.00 Overcast SCT007 BKN010 OVC022 69.8 64.4 83% 29.98 0.0
30 12:36 SE 6 10.00 Overcast BKN007 BKN015 OVC022 68 64.4 88% 29.98 0.0
30 12:15 E 6 5.00 Fog/Mist SCT009 OVC013 68 64.4 88% 29.99 0.0
30 11:55 E 6 10.00 Overcast FEW009 OVC015 66.2 64.4 94% 29.99 0.0
30 11:35 S 3 10.00 Overcast SCT008 OVC011 66.2 62.6 88% 29.99 0.0
30 11:15 SE 7 10.00 Overcast BKN006 BKN012 OVC027 66.2 62.6 88% 29.99 0.0
30 10:55 SE 5 8.00 Overcast BKN006 BKN014 OVC025 66.2 62.6 88% 29.99 0.0
30 10:35 SE 6 10.00 Overcast SCT006 SCT015 OVC025 64.4 62.6 94% 29.99 0.0
30 10:16 SE 8 10.00 Overcast FEW008 FEW014 OVC025 64.4 62.6 94% 29.99 0.0
30 09:55 SE 8 10.00 Overcast OVC025 64.4 62.6 94% 29.98 0.0
30 09:35 SE 6 10.00 Overcast FEW006 BKN025 OVC029 64.4 62.6 94% 29.98 0.0
30 09:15 SE 6 10.00 Overcast OVC029 64.4 62.6 94% 29.98 0.0
30 08:55 SE 8 10.00 Overcast OVC029 64.4 62.6 94% 29.99 0.0 0.01
30 08:35 SE 7 9.00 Overcast FEW007 OVC029 64.4 62.6 94% 29.99 0.0
30 08:15 SE 8 10.00 Light Drizzle SCT007 OVC033 64.4 62.6 94% 29.98 0.0
30 07:56 SE 9 4.00 Light Rain Fog/Mist FEW010 FEW024 OVC033 64.4 62.6 94% 29.98 0.0
30 07:35 SE 7 5.00 Light Drizzle Fog/Mist BKN024 OVC033 64.4 62.6 94% 29.98 0.0
30 07:15 SE 7 9.00 Light Rain BKN026 OVC032 64.4 62.6 94% 29.98 0.0
30 06:55 SE 5 8.00 Light Drizzle FEW028 BKN036 OVC047 64.4 62.6 94% 29.99 0.0 0.01
30 06:35 SE 6 8.00 Light Drizzle OVC037 64.4 62.6 94% 29.98 0.0
30 06:15 E 3 10.00 Overcast BKN041 OVC047 64.4 62.6 94% 29.98 0.0
30 05:55 Vrbl 2 7.00 Light Rain BKN048 OVC050 64.4 62.6 94% 29.99 0.0
30 05:36 S 5 10.00 Light Rain FEW050 OVC055 64.4 62.6 94% 29.98 0.0
30 05:15 S 7 10.00 Overcast SCT055 OVC065 64.4 62.6 94% 29.99 0.0
30 04:55 S 6 10.00 Overcast FEW049 BKN065 OVC075 64.4 62.6 94% 29.99 0.0
30 04:35 S 6 10.00 Overcast FEW050 OVC065 64.4 60.8 88% 30 0.0
30 04:15 S 7 10.00 Overcast OVC065 64.4 62.6 94% 30.01 0.0
30 03:55 SE 7 10.00 Overcast OVC065 64.4 62.6 94% 30.01 0.0
30 03:35 S 3 10.00 Overcast OVC065 64.4 62.6 94% 30.01 0.0
30 03:16 S 5 10.00 Overcast OVC065 64.4 62.6 94% 30.02 0.0
30 02:55 S 5 10.00 Light Rain OVC065 64.4 62.6 94% 30.02 0.0 0.01
30 02:35 S 3 9.00 Light Rain FEW055 OVC065 64.4 62.6 94% 30.03 0.0
30 01:55 SW 7 8.00 Light Rain BKN009 BKN021 OVC047 66.2 62.6 69.6 65.5 88% 30.06 0.0 0.01
30 01:35 SW 6 7.00 Light Rain Fog/Mist SCT008 BKN046 OVC055 66.2 62.6 88% 30.06 0.0
30 01:15 SW 6 6.00 Light Drizzle Fog/Mist SCT013 BKN065 OVC080 66.2 64.4 94% 30.06 0.0
30 00:56 SW 3 10.00 Overcast FEW011 BKN080 OVC100 66.2 64.4 94% 30.06 0.0
30 00:35 SW 5 10.00 Light Drizzle BKN060 BKN075 OVC100 66.2 64.4 94% 30.06 0.0
30 00:15 SW 5 10.00 Light Rain OVC060 66.2 64.4 94% 30.05 0.0
29 23:55 S 5 8.00 Light Rain OVC065 66.2 62.6 88% 30.05 0.0
29 23:35 SW 3 10.00 Light Rain OVC050 66.2 62.6 88% 30.05 0.0
29 23:15 SW 2 9.00 Light Rain SCT043 BKN050 OVC090 66.2 62.6 88% 30.05 0.0
29 22:55 SW 5 10.00 Light Rain BKN043 OVC055 68 62.6 83% 30.05 0.0
29 22:36 SW 7 10.00 Overcast SCT041 BKN047 OVC060 68 62.6 83% 30.05 0.0
29 22:15 W 7 10.00 Overcast BKN035 OVC060 68 62.6 83% 30.05 0.0
29 21:55 SW 8 10.00 Overcast BKN036 OVC050 68 60.8 78% 30.05 0.0
29 21:35 SW 8 10.00 Overcast OVC050 68 60.8 78% 30.04 0.0
29 21:15 SW 7 10.00 Overcast BKN050 OVC100 68 60.8 78% 30.04 0.0
29 20:55 SW 7 10.00 Overcast FEW050 FEW065 OVC100 68 60.8 78% 30.03 0.0
29 20:35 SW 5 10.00 Overcast BKN065 OVC100 69.8 60.8 73% 30.02 0.0
29 20:16 SW 9 10.00 Overcast BKN055 OVC095 69.8 62.6 78% 30.02 0.0
29 19:55 W 7 10.00 Overcast FEW055 OVC095 69.8 62.6 75 69.8 78% 30.03 0.0
29 19:35 W 10 10.00 Overcast FEW065 OVC085 69.8 60.8 73% 30.02 0.0
29 19:15 W 15 G 21 10.00 Overcast BKN085 OVC110 71.6 62.6 73% 30.03 0.0
29 18:55 W 10 10.00 Overcast SCT070 BKN080 OVC110 71.6 62.6 73% 30.02 0.0
29 18:35 W 9 10.00 Overcast OVC070 71.6 62.6 73% 30.02 0.0
29 18:15 SW 7 10.00 Overcast OVC060 71.6 62.6 73% 30.01 0.0
29 17:56 W 8 10.00 Overcast OVC070 71.6 60.8 69% 30.02 0.0
29 17:35 W 6 10.00 Overcast OVC080 73.4 60.8 65% 30.02 0.0
29 17:15 SW 8 10.00 Overcast SCT050 SCT060 OVC080 73.4 60.8 65% 30.01 0.0
29 16:55 W 8 10.00 Overcast BKN050 BKN060 OVC100 73.4 59 61% 30.02 0.0
29 16:35 SW 8 10.00 Overcast OVC100 73.4 60.8 65% 30.02 0.0
29 16:15 SW 7 10.00 Overcast OVC110 75.2 60.8 61% 77 30.02 0.0
29 15:55 SW 9 10.00 Mostly Cloudy BKN110 75.2 60.8 61% 77 30.03 0.0
29 15:36 SW 6 10.00 Partly Cloudy SCT120 75.2 60.8 61% 77 30.04 0.0
29 15:15 SW 7 10.00 Mostly Cloudy BKN120 75.2 60.8 61% 77 30.04 0.0
29 14:55 SW 8 10.00 Overcast OVC120 73.4 62.6 69% 30.04 0.0
29 14:35 SW 8 10.00 Mostly Cloudy BKN120 73.4 62.6 69% 30.04 0.0
29 14:15 SW 8 10.00 Fair CLR 73.4 60.8 65% 30.04 0.0
29 13:55 SW 13 10.00 Fair CLR 75.2 60.8 79 64 61% 77 30.05 0.0
29 13:35 W 10 10.00 Fair CLR 75.2 62.6 65% 77 30.05 0.0
29 13:16 SW 13 10.00 Fair CLR 75.2 62.6 65% 77 30.05 0.0
29 12:55 W 13 G 18 10.00 Fair CLR 75.2 60.8 61% 77 30.06 0.0
29 12:35 SW 10 10.00 Fair CLR 75.2 60.8 61% 77 30.06 0.0
29 12:15 W 12 G 16 10.00 Fair CLR 77 60.8 57% 79 30.06 0.0
Date Time (edt) Wind (mph) Vis. (mi.) Weather Sky Cond. Air Dwpt Max. Min. Relative Humidity Wind Chill (°F) Heat Index (°F) altimeter (in) sea level (mb) 1 hr 3 hr 6 hr
6 hour
Temperature (ºF) Pressure Precipitation (in)